This is the latest recevied weather packets stored in our database for station/object DO7ZT-10. If no packets are shown the sender has not sent any weather packets the latest 10 day(s).
| Time | Temp. | Humidity | Pressure | Rain* | Wind** | Luminosity | Snow |
|---|---|---|---|---|---|---|---|
| 1777624385 | 18.33° C | 38% | 1029.2 hPa | - | - | - | - |
| 1777623487 | 16.67° C | 40% | 1029.1 hPa | - | - | - | - |
| 1777622585 | 15.56° C | 46% | 1029.2 hPa | - | - | - | - |
| 1777621685 | 14.44° C | 51% | 1029.2 hPa | - | - | - | - |
| 1777620785 | 13.33° C | 55% | 1029.2 hPa | - | - | - | - |
| 1777619885 | 12.78° C | 55% | 1029.2 hPa | - | - | - | - |
| 1777618985 | 11.67° C | 56% | 1029.2 hPa | - | - | - | - |
| 1777618085 | 11.67° C | 55% | 1029.1 hPa | - | - | - | - |
| 1777617184 | 11.11° C | 55% | 1029.3 hPa | - | - | - | - |
| 1777616284 | 10.56° C | 57% | 1029.2 hPa | - | - | - | - |
| 1777615384 | 10.56° C | 57% | 1029.3 hPa | - | - | - | - |
| 1777614484 | 10° C | 58% | 1029.2 hPa | - | - | - | - |
| 1777613584 | 8.89° C | 64% | 1029.2 hPa | - | - | - | - |
| 1777612684 | 7.78° C | 71% | 1029.1 hPa | - | - | - | - |
| 1777611784 | 6.67° C | 83% | 1029 hPa | - | - | - | - |
| 1777610884 | 6.11° C | 82% | 1029.1 hPa | - | - | - | - |
| 1777609984 | 5.56° C | 80% | 1028.9 hPa | - | - | - | - |
| 1777609083 | 5° C | 79% | 1028.9 hPa | - | - | - | - |
| 1777608183 | 4.44° C | 81% | 1028.8 hPa | - | - | - | - |
| 1777607283 | 3.89° C | 81% | 1028.9 hPa | - | - | - | - |
| 1777606383 | 3.89° C | 82% | 1028.9 hPa | - | - | - | - |
| 1777605483 | 3.89° C | 79% | 1028.8 hPa | - | - | - | - |
| 1777604583 | 4.44° C | 79% | 1028.9 hPa | - | - | - | - |
| 1777603683 | 4.44° C | 78% | 1028.8 hPa | - | - | - | - |
| 1777602782 | 4.44° C | 77% | 1028.9 hPa | - | - | - | - |
* Rain since midnight (hover to see other rain measurements)
** Current wind speed in m/s (hover to see current wind gust speed)